Time;durP1;ratioP1;P1;durP2;ratioP2;P2;SDS_P1;SDS_P2;PMS_P1;PMS_P2;Temp;Humidity;BMP_temperature;BMP_pressure;BME280_temperature;BME280_humidity;BME280_pressure;Samples;Min_cycle;Max_cycle;Signal;HPM_P1;HPM_P2
2023/02/16 00:00:04;;;;;;;;;;;5.10;99.90;;;;;;5043449;28;20073;-66
2023/02/16 00:02:30;;;;;;;;;;;5.10;99.90;;;;;;5067249;28;19924;-66
2023/02/16 00:04:56;;;;;;;;;;;5.10;99.90;;;;;;5066385;28;19920;-66
2023/02/16 00:07:22;;;;;;;;;;;5.00;99.90;;;;;;5063869;28;20018;-65
2023/02/16 00:09:47;;;;;;;;;;;5.00;99.90;;;;;;5066352;28;19920;-66
2023/02/16 00:15:19;;;;;;;;;;;5.00;99.90;;;;;;5066653;28;19924;-66
2023/02/16 00:17:45;;;;;;;;;;;5.00;99.90;;;;;;5066896;28;19994;-66
2023/02/16 00:20:15;;;;;;;;;;;5.10;99.90;;;;;;5038701;28;20370;-66
2023/02/16 00:22:40;;;;;;;;;;;5.10;99.90;;;;;;5066350;28;19925;-66
2023/02/16 00:25:07;;;;;;;;;;;5.10;99.90;;;;;;5032485;28;20646;-66
2023/02/16 00:27:32;;;;;;;;;;;5.10;99.90;;;;;;5066321;28;19920;-66
2023/02/16 00:29:59;;;;;;;;;;;5.10;99.90;;;;;;5049743;28;19924;-66
2023/02/16 00:32:24;;;;;;;;;;;5.10;99.90;;;;;;5066704;28;20285;-65
2023/02/16 00:34:50;;;;;;;;;;;5.10;99.90;;;;;;5049122;28;19916;-66
2023/02/16 00:37:16;;;;;;;;;;;5.10;99.90;;;;;;5067425;28;20140;-66
2023/02/16 00:39:42;;;;;;;;;;;5.00;99.90;;;;;;5048159;28;20700;-66
2023/02/16 00:42:14;;;;;;;;;;;5.00;99.90;;;;;;5067276;28;19969;-66
2023/02/16 00:44:45;;;;;;;;;;;5.00;99.90;;;;;;5065708;28;20366;-66
2023/02/16 00:47:28;;;;;;;;;;;5.00;99.90;;;;;;5054062;28;20512;-66
2023/02/16 00:49:54;;;;;;;;;;;4.90;99.90;;;;;;5046821;28;20003;-66
2023/02/16 00:52:36;;;;;;;;;;;4.90;99.90;;;;;;5065887;28;19954;-66
2023/02/16 00:55:07;;;;;;;;;;;4.90;99.90;;;;;;5049247;28;20331;-66
2023/02/16 00:57:34;;;;;;;;;;;4.80;99.90;;;;;;5067837;28;19928;-66
2023/02/16 01:00:05;;;;;;;;;;;4.80;99.90;;;;;;5046973;28;19928;-66
2023/02/16 01:02:30;;;;;;;;;;;4.70;99.90;;;;;;5067872;28;19927;-66
2023/02/16 01:04:56;;;;;;;;;;;4.70;99.90;;;;;;5051915;28;19924;-66
2023/02/16 01:12:51;;;;;;;;;;;4.60;99.90;;;;;;5055159;28;19924;-66
2023/02/16 01:15:19;;;;;;;;;;;4.60;99.90;;;;;;5068996;28;19934;-66
2023/02/16 01:17:44;;;;;;;;;;;4.60;99.90;;;;;;5052532;28;20484;-66
2023/02/16 01:20:14;;;;;;;;;;;4.60;99.90;;;;;;5070185;28;19924;-66
2023/02/16 01:22:40;;;;;;;;;;;4.60;99.90;;;;;;5069213;28;19925;-65
2023/02/16 01:25:05;;;;;;;;;;;4.60;99.90;;;;;;5051888;28;20004;-66
2023/02/16 01:27:31;;;;;;;;;;;4.50;99.90;;;;;;5051230;28;19974;-66
2023/02/16 01:29:57;;;;;;;;;;;4.50;99.90;;;;;;5070706;28;19934;-66
2023/02/16 01:32:23;;;;;;;;;;;4.50;99.90;;;;;;5068460;28;20281;-66
2023/02/16 01:34:48;;;;;;;;;;;4.50;99.90;;;;;;5070695;28;19924;-66
2023/02/16 01:37:14;;;;;;;;;;;4.40;99.90;;;;;;5051412;28;19929;-66
2023/02/16 01:39:40;;;;;;;;;;;4.40;99.90;;;;;;5069538;28;20011;-66
2023/02/16 01:42:09;;;;;;;;;;;4.40;99.90;;;;;;5051968;28;19924;-66
2023/02/16 01:44:47;;;;;;;;;;;4.40;99.90;;;;;;5068511;28;20011;-66
2023/02/16 01:47:28;;;;;;;;;;;4.50;99.90;;;;;;5052079;28;19928;-66
2023/02/16 01:49:54;;;;;;;;;;;4.50;99.90;;;;;;5050902;28;19925;-66
2023/02/16 01:52:52;;;;;;;;;;;4.50;99.90;;;;;;5069176;28;19924;-66
2023/02/16 01:55:17;;;;;;;;;;;4.50;99.90;;;;;;5014037;28;20014;-66
2023/02/16 01:57:49;;;;;;;;;;;4.50;99.90;;;;;;5068750;28;19999;-66
2023/02/16 02:00:14;;;;;;;;;;;4.40;99.90;;;;;;5069466;28;19931;-66
2023/02/16 02:02:43;;;;;;;;;;;4.40;99.90;;;;;;5068657;28;19999;-66
2023/02/16 02:07:58;;;;;;;;;;;4.40;99.90;;;;;;5057771;28;19969;-66
2023/02/16 02:10:43;;;;;;;;;;;4.30;99.90;;;;;;5049270;28;20016;-66
2023/02/16 02:13:26;;;;;;;;;;;4.30;99.90;;;;;;5057679;28;19920;-66
2023/02/16 02:15:52;;;;;;;;;;;4.30;99.90;;;;;;5068803;28;20020;-66
2023/02/16 02:18:17;;;;;;;;;;;4.30;99.90;;;;;;5068764;28;20003;-66
2023/02/16 02:23:59;;;;;;;;;;;4.30;99.90;;;;;;5037507;28;19928;-66
2023/02/16 02:26:42;;;;;;;;;;;4.20;99.90;;;;;;5068050;28;19927;-65
2023/02/16 02:29:07;;;;;;;;;;;4.20;99.90;;;;;;5068104;28;19928;-66
2023/02/16 02:31:46;;;;;;;;;;;4.20;99.90;;;;;;5067966;28;19920;-66
2023/02/16 02:34:20;;;;;;;;;;;4.20;99.90;;;;;;5051134;28;20365;-66
2023/02/16 02:36:46;;;;;;;;;;;4.20;99.90;;;;;;5054109;28;19934;-66
2023/02/16 02:39:35;;;;;;;;;;;4.20;99.90;;;;;;5068847;28;19999;-66
2023/02/16 02:42:03;;;;;;;;;;;4.20;99.90;;;;;;5056052;28;19931;-66
2023/02/16 02:44:32;;;;;;;;;;;4.20;99.90;;;;;;5067956;28;19920;-66
2023/02/16 02:46:58;;;;;;;;;;;4.30;99.90;;;;;;5055475;28;19925;-66
2023/02/16 02:49:23;;;;;;;;;;;4.30;99.90;;;;;;5066633;28;19921;-66
2023/02/16 02:51:50;;;;;;;;;;;4.40;99.90;;;;;;5068446;28;19921;-66
2023/02/16 03:02:50;;;;;;;;;;;4.30;99.90;;;;;;5067133;28;20434;-66
2023/02/16 03:05:18;;;;;;;;;;;4.30;99.90;;;;;;5034000;28;19932;-66
2023/02/16 03:07:45;;;;;;;;;;;4.30;99.90;;;;;;5050062;28;19921;-66
2023/02/16 03:13:01;;;;;;;;;;;4.20;99.90;;;;;;5055136;28;20018;-66
2023/02/16 03:15:29;;;;;;;;;;;4.30;99.90;;;;;;5031980;28;19924;-66
2023/02/16 03:31:40;;;;;;;;;;;4.30;99.90;;;;;;5060426;28;19924;-66
2023/02/16 03:34:05;;;;;;;;;;;4.30;99.90;;;;;;5050098;28;19925;-66
2023/02/16 03:36:33;;;;;;;;;;;4.30;99.90;;;;;;5066569;28;19926;-66
2023/02/16 03:39:02;;;;;;;;;;;4.30;99.90;;;;;;5068377;28;19920;-66
2023/02/16 03:41:32;;;;;;;;;;;4.30;99.90;;;;;;5048160;28;19924;-66
2023/02/16 03:43:58;;;;;;;;;;;4.40;99.90;;;;;;5068215;28;19924;-66
2023/02/16 03:46:23;;;;;;;;;;;4.40;99.90;;;;;;5048182;28;19931;-66
2023/02/16 03:48:49;;;;;;;;;;;4.50;99.90;;;;;;5050152;28;19921;-66
2023/02/16 03:51:15;;;;;;;;;;;4.50;99.90;;;;;;5049425;28;20290;-66
2023/02/16 03:53:41;;;;;;;;;;;4.60;99.90;;;;;;5066198;28;19924;-66
2023/02/16 03:56:07;;;;;;;;;;;4.60;99.90;;;;;;5068264;28;19931;-66
2023/02/16 03:58:32;;;;;;;;;;;4.70;99.90;;;;;;5066152;28;19928;-66
2023/02/16 04:00:58;;;;;;;;;;;4.70;99.90;;;;;;5067915;28;20385;-66
2023/02/16 04:03:26;;;;;;;;;;;4.80;99.90;;;;;;5065838;28;19943;-66
2023/02/16 04:05:51;;;;;;;;;;;4.80;99.90;;;;;;5068208;28;19927;-66
2023/02/16 04:08:17;;;;;;;;;;;4.90;99.90;;;;;;5067266;28;19921;-66
2023/02/16 04:10:43;;;;;;;;;;;4.90;99.90;;;;;;5066987;28;20014;-66
2023/02/16 04:13:09;;;;;;;;;;;4.90;99.90;;;;;;5049422;28;19924;-66
2023/02/16 04:15:34;;;;;;;;;;;5.00;99.90;;;;;;5065672;28;19920;-66
2023/02/16 04:18:01;;;;;;;;;;;5.00;99.90;;;;;;5067937;28;19932;-66
2023/02/16 04:20:28;;;;;;;;;;;5.00;99.90;;;;;;5048121;28;19925;-66
2023/02/16 04:22:53;;;;;;;;;;;5.10;99.90;;;;;;5067816;28;19927;-66
2023/02/16 04:25:19;;;;;;;;;;;5.10;99.90;;;;;;5067150;28;19920;-66
2023/02/16 04:27:45;;;;;;;;;;;5.10;99.90;;;;;;5067063;28;19942;-66
2023/02/16 04:30:12;;;;;;;;;;;5.20;99.90;;;;;;5049339;28;20427;-66
2023/02/16 04:32:39;;;;;;;;;;;5.20;99.90;;;;;;5067745;28;20405;-66
2023/02/16 04:35:05;;;;;;;;;;;5.30;99.90;;;;;;5053805;28;19964;-66
2023/02/16 04:37:31;;;;;;;;;;;5.30;99.90;;;;;;5069592;28;20275;-66
2023/02/16 04:39:57;;;;;;;;;;;5.30;99.90;;;;;;5071473;28;19930;-66
2023/02/16 04:42:23;;;;;;;;;;;5.30;99.90;;;;;;5052078;28;20282;-66
2023/02/16 04:44:49;;;;;;;;;;;5.30;99.90;;;;;;5070289;28;20095;-66
2023/02/16 04:47:15;;;;;;;;;;;5.30;99.90;;;;;;5053067;28;19928;-66
2023/02/16 04:49:41;;;;;;;;;;;5.30;99.90;;;;;;5035418;28;19924;-66
2023/02/16 04:52:06;;;;;;;;;;;5.40;99.90;;;;;;5071645;28;19920;-66
2023/02/16 04:54:33;;;;;;;;;;;5.40;99.90;;;;;;5069025;28;19950;-66
2023/02/16 04:56:59;;;;;;;;;;;5.40;99.90;;;;;;5071200;28;19925;-66
2023/02/16 04:59:25;;;;;;;;;;;5.40;99.90;;;;;;5069429;28;19932;-66
2023/02/16 05:01:52;;;;;;;;;;;5.40;99.90;;;;;;5070566;28;20386;-66
2023/02/16 05:04:18;;;;;;;;;;;5.40;99.90;;;;;;5069925;28;19924;-66
2023/02/16 05:06:43;;;;;;;;;;;5.40;99.90;;;;;;5050785;28;19955;-66
2023/02/16 05:09:09;;;;;;;;;;;5.50;99.90;;;;;;5070285;28;19927;-66
2023/02/16 05:17:06;;;;;;;;;;;5.50;99.90;;;;;;5069598;28;19920;-66
2023/02/16 05:19:32;;;;;;;;;;;5.50;99.90;;;;;;5070437;28;20021;-66
2023/02/16 05:21:57;;;;;;;;;;;5.50;99.90;;;;;;5068896;28;19924;-66
2023/02/16 05:24:23;;;;;;;;;;;5.50;99.90;;;;;;5047771;28;19932;-66
2023/02/16 05:26:48;;;;;;;;;;;5.60;99.90;;;;;;5035407;28;19931;-66
2023/02/16 05:29:14;;;;;;;;;;;5.50;99.90;;;;;;5068867;28;20007;-66
2023/02/16 05:31:40;;;;;;;;;;;5.60;99.90;;;;;;5069588;28;19927;-66
2023/02/16 05:34:05;;;;;;;;;;;5.50;99.90;;;;;;5069061;28;20456;-66
2023/02/16 05:36:31;;;;;;;;;;;5.60;99.90;;;;;;5070211;28;20401;-66
2023/02/16 05:38:56;;;;;;;;;;;5.60;99.90;;;;;;5069225;28;19975;-66
2023/02/16 05:41:22;;;;;;;;;;;5.60;99.90;;;;;;5034584;28;19920;-66
2023/02/16 05:43:52;;;;;;;;;;;5.60;99.90;;;;;;5068543;28;20042;-66
2023/02/16 05:46:18;;;;;;;;;;;5.60;99.90;;;;;;5050861;28;20014;-66
2023/02/16 05:48:43;;;;;;;;;;;5.60;99.90;;;;;;5052032;28;19932;-66
2023/02/16 05:51:10;;;;;;;;;;;5.60;99.90;;;;;;5051023;28;20262;-66
2023/02/16 05:53:35;;;;;;;;;;;5.60;99.90;;;;;;5035221;28;19943;-66
2023/02/16 05:56:01;;;;;;;;;;;5.60;99.90;;;;;;5068032;28;20371;-66
2023/02/16 05:58:27;;;;;;;;;;;5.60;99.90;;;;;;5069650;28;19928;-66
2023/02/16 06:00:52;;;;;;;;;;;5.60;99.90;;;;;;5069459;28;19967;-66
2023/02/16 06:03:18;;;;;;;;;;;5.60;99.90;;;;;;5068293;28;19924;-66
2023/02/16 06:05:44;;;;;;;;;;;5.60;99.90;;;;;;5069221;28;19924;-66
2023/02/16 06:08:09;;;;;;;;;;;5.60;99.90;;;;;;5068670;28;19974;-66
2023/02/16 06:10:36;;;;;;;;;;;5.70;99.90;;;;;;5069932;28;20370;-66
2023/02/16 06:13:01;;;;;;;;;;;5.60;99.90;;;;;;5049142;28;19928;-66
2023/02/16 06:15:27;;;;;;;;;;;5.70;99.90;;;;;;5051453;28;19924;-66
2023/02/16 06:17:53;;;;;;;;;;;5.70;99.90;;;;;;5050509;28;19928;-66
2023/02/16 06:20:19;;;;;;;;;;;5.60;99.90;;;;;;5069052;28;19924;-66
2023/02/16 06:22:44;;;;;;;;;;;5.70;99.90;;;;;;5051326;28;19920;-66
2023/02/16 06:25:11;;;;;;;;;;;5.70;99.90;;;;;;5068005;28;20018;-66
2023/02/16 06:27:36;;;;;;;;;;;5.70;99.90;;;;;;5069303;28;19924;-66
2023/02/16 06:30:03;;;;;;;;;;;5.70;99.90;;;;;;5067725;28;20321;-66
2023/02/16 06:32:29;;;;;;;;;;;5.70;99.90;;;;;;5050389;28;20449;-66
2023/02/16 06:34:56;;;;;;;;;;;5.70;99.90;;;;;;5067083;28;20328;-66
2023/02/16 06:37:21;;;;;;;;;;;5.70;99.90;;;;;;5049444;28;19920;-66
2023/02/16 06:39:47;;;;;;;;;;;5.70;99.90;;;;;;5068323;28;20320;-66
2023/02/16 06:42:12;;;;;;;;;;;5.70;99.90;;;;;;5067690;28;19930;-66
2023/02/16 06:44:43;;;;;;;;;;;5.70;99.90;;;;;;5063983;28;20074;-66
2023/02/16 06:47:09;;;;;;;;;;;5.80;99.90;;;;;;5066888;28;20378;-66
2023/02/16 06:49:34;;;;;;;;;;;5.70;99.90;;;;;;5068152;28;19928;-66
2023/02/16 06:52:00;;;;;;;;;;;5.80;99.90;;;;;;5032332;28;19937;-66
2023/02/16 06:54:26;;;;;;;;;;;5.70;99.90;;;;;;5068626;28;19920;-66
2023/02/16 06:56:51;;;;;;;;;;;5.70;99.90;;;;;;5067824;28;20290;-66
2023/02/16 06:59:17;;;;;;;;;;;5.70;99.90;;;;;;5033183;28;19921;-66
2023/02/16 07:01:43;;;;;;;;;;;5.70;99.90;;;;;;5033495;28;19924;-66
2023/02/16 07:04:09;;;;;;;;;;;5.70;99.90;;;;;;5066468;28;19927;-66
2023/02/16 07:06:35;;;;;;;;;;;5.70;99.90;;;;;;5050607;28;20390;-66
2023/02/16 07:09:01;;;;;;;;;;;5.70;99.90;;;;;;5066626;28;20009;-66
2023/02/16 07:11:27;;;;;;;;;;;5.70;99.90;;;;;;5068057;28;20286;-66
2023/02/16 07:13:53;;;;;;;;;;;5.70;99.90;;;;;;5048811;28;19928;-66
2023/02/16 07:16:19;;;;;;;;;;;5.70;99.90;;;;;;5067538;28;19924;-66
2023/02/16 07:18:46;;;;;;;;;;;5.70;99.90;;;;;;5068326;28;19978;-65
2023/02/16 07:21:13;;;;;;;;;;;5.80;99.90;;;;;;5066035;28;20378;-65
2023/02/16 07:23:38;;;;;;;;;;;5.70;99.90;;;;;;5068438;28;20003;-65
2023/02/16 07:26:04;;;;;;;;;;;5.80;99.90;;;;;;5065773;28;19927;-65
2023/02/16 07:28:30;;;;;;;;;;;5.80;99.90;;;;;;5050001;28;19940;-65
2023/02/16 07:30:56;;;;;;;;;;;5.80;99.90;;;;;;5065507;28;19932;-65
2023/02/16 07:33:22;;;;;;;;;;;5.80;99.90;;;;;;5067752;28;19928;-65
2023/02/16 07:35:49;;;;;;;;;;;5.80;99.90;;;;;;5067180;28;19951;-65
2023/02/16 07:38:14;;;;;;;;;;;5.90;99.90;;;;;;5048366;28;19924;-65
2023/02/16 07:40:40;;;;;;;;;;;5.90;99.90;;;;;;5049460;28;19978;-65
2023/02/16 07:43:12;;;;;;;;;;;5.90;99.90;;;;;;5066059;28;20132;-65
2023/02/16 07:45:38;;;;;;;;;;;5.90;99.90;;;;;;5067698;28;20359;-65
2023/02/16 07:48:04;;;;;;;;;;;5.90;99.90;;;;;;5065649;28;20318;-65
2023/02/16 07:50:29;;;;;;;;;;;5.90;99.90;;;;;;5067307;28;19971;-65
2023/02/16 07:52:55;;;;;;;;;;;6.00;99.90;;;;;;5039200;28;19924;-65
2023/02/16 07:55:20;;;;;;;;;;;6.00;99.90;;;;;;5064875;28;19920;-65
2023/02/16 07:57:48;;;;;;;;;;;6.00;99.90;;;;;;5066744;28;19928;-65
2023/02/16 08:00:14;;;;;;;;;;;6.00;99.90;;;;;;5065965;28;19924;-65
2023/02/16 08:02:39;;;;;;;;;;;6.00;99.90;;;;;;5032887;28;20010;-65
2023/02/16 08:05:05;;;;;;;;;;;6.10;99.90;;;;;;5064879;28;19921;-65
2023/02/16 08:07:31;;;;;;;;;;;6.10;99.90;;;;;;5069901;28;20392;-65
2023/02/16 08:09:56;;;;;;;;;;;6.10;99.90;;;;;;5070494;28;19920;-65
2023/02/16 08:12:22;;;;;;;;;;;6.20;99.90;;;;;;5052149;28;19971;-65
2023/02/16 08:14:48;;;;;;;;;;;6.20;99.90;;;;;;5037121;28;20040;-65
2023/02/16 08:17:14;;;;;;;;;;;6.10;99.90;;;;;;5051824;28;20374;-65
2023/02/16 08:19:40;;;;;;;;;;;6.20;99.90;;;;;;5071651;28;19945;-65
2023/02/16 08:22:06;;;;;;;;;;;6.20;99.90;;;;;;5069654;28;20492;-65
2023/02/16 08:24:36;;;;;;;;;;;6.30;99.90;;;;;;5072008;28;19979;-65
2023/02/16 08:27:02;;;;;;;;;;;6.30;99.90;;;;;;5051591;28;19931;-65
2023/02/16 08:29:29;;;;;;;;;;;6.30;99.90;;;;;;5050008;28;20386;-65
2023/02/16 08:31:55;;;;;;;;;;;6.30;99.90;;;;;;5071129;28;19925;-65
2023/02/16 08:34:21;;;;;;;;;;;6.30;99.90;;;;;;5051535;28;19920;-65
2023/02/16 08:36:51;;;;;;;;;;;6.40;99.90;;;;;;5070535;28;19958;-65
2023/02/16 08:39:18;;;;;;;;;;;6.40;99.90;;;;;;5068908;28;19920;-65
2023/02/16 08:41:45;;;;;;;;;;;6.50;99.90;;;;;;5052769;28;20378;-65
2023/02/16 08:44:11;;;;;;;;;;;6.50;99.90;;;;;;5051203;28;19920;-65
2023/02/16 08:46:38;;;;;;;;;;;6.50;99.90;;;;;;5070220;28;20524;-65
2023/02/16 08:49:05;;;;;;;;;;;6.50;99.90;;;;;;5052486;28;19927;-65
2023/02/16 08:51:33;;;;;;;;;;;6.60;99.90;;;;;;5051780;28;19917;-65
2023/02/16 08:53:59;;;;;;;;;;;6.60;99.90;;;;;;5068483;28;20387;-65
2023/02/16 08:56:25;;;;;;;;;;;6.60;99.90;;;;;;5068416;28;20007;-65
2023/02/16 08:58:51;;;;;;;;;;;6.70;99.90;;;;;;5070290;28;20019;-65
2023/02/16 09:01:17;;;;;;;;;;;6.70;99.90;;;;;;5068534;28;20014;-65
2023/02/16 09:03:43;;;;;;;;;;;6.70;99.90;;;;;;5070230;28;19929;-65
2023/02/16 09:06:11;;;;;;;;;;;6.70;99.90;;;;;;5050633;28;20039;-65
2023/02/16 09:08:37;;;;;;;;;;;6.80;99.90;;;;;;5069369;28;19924;-65
2023/02/16 09:11:05;;;;;;;;;;;6.80;99.90;;;;;;5051496;28;19924;-65
2023/02/16 09:13:32;;;;;;;;;;;6.80;99.90;;;;;;5067614;28;19927;-65
2023/02/16 09:16:02;;;;;;;;;;;6.80;99.90;;;;;;5069904;28;20080;-65
2023/02/16 09:18:27;;;;;;;;;;;6.90;99.90;;;;;;5066664;28;20880;-65
2023/02/16 09:20:53;;;;;;;;;;;6.90;99.90;;;;;;5069915;28;19924;-65
2023/02/16 09:23:20;;;;;;;;;;;6.90;99.90;;;;;;5033562;28;20350;-65
2023/02/16 09:25:47;;;;;;;;;;;7.00;99.90;;;;;;5068591;28;19928;-65
2023/02/16 09:28:13;;;;;;;;;;;7.00;99.90;;;;;;5053202;28;19964;-65
2023/02/16 09:30:38;;;;;;;;;;;7.10;99.90;;;;;;5050258;28;19927;-65
2023/02/16 09:33:04;;;;;;;;;;;7.10;99.90;;;;;;5067553;28;19928;-66
2023/02/16 09:35:30;;;;;;;;;;;7.20;99.90;;;;;;5067868;28;19925;-66
2023/02/16 09:37:56;;;;;;;;;;;7.20;99.90;;;;;;5051650;28;20053;-66
2023/02/16 09:40:23;;;;;;;;;;;7.30;99.90;;;;;;5067842;28;19930;-66
2023/02/16 09:42:51;;;;;;;;;;;7.40;99.90;;;;;;5069264;28;20019;-66
2023/02/16 09:45:19;;;;;;;;;;;7.50;99.90;;;;;;5051249;28;19943;-66
2023/02/16 09:47:46;;;;;;;;;;;7.50;99.90;;;;;;5050781;28;19927;-66
2023/02/16 09:50:14;;;;;;;;;;;7.50;99.90;;;;;;5051622;28;19924;-66
2023/02/16 09:52:49;;;;;;;;;;;7.60;99.90;;;;;;5068439;28;20440;-66
2023/02/16 09:55:17;;;;;;;;;;;7.60;99.90;;;;;;5050877;28;19924;-66
2023/02/16 09:57:58;;;;;;;;;;;7.60;99.90;;;;;;5030658;28;20266;-66
2023/02/16 10:00:24;;;;;;;;;;;7.60;99.90;;;;;;5064908;28;19921;-66
2023/02/16 10:03:10;;;;;;;;;;;7.60;99.90;;;;;;5068639;28;19931;-66
2023/02/16 10:05:40;;;;;;;;;;;7.60;99.90;;;;;;4954586;28;19925;-66
2023/02/16 10:08:13;;;;;;;;;;;7.70;99.90;;;;;;4959603;28;19969;-65
2023/02/16 10:10:57;;;;;;;;;;;7.80;99.90;;;;;;4967705;28;20356;-66
2023/02/16 10:13:45;;;;;;;;;;;7.90;99.90;;;;;;4988850;28;20423;-66
2023/02/16 10:16:15;;;;;;;;;;;8.00;99.90;;;;;;4975054;28;19941;-66
2023/02/16 10:18:44;;;;;;;;;;;8.20;99.90;;;;;;4964458;28;20407;-66
2023/02/16 10:21:16;;;;;;;;;;;8.20;99.90;;;;;;4981945;28;19953;-66
2023/02/16 10:23:51;;;;;;;;;;;8.30;99.90;;;;;;4991521;28;20016;-66
2023/02/16 10:26:46;;;;;;;;;;;8.50;99.90;;;;;;5002914;28;20004;-66
2023/02/16 10:29:14;;;;;;;;;;;8.50;99.90;;;;;;4979401;28;20020;-66
2023/02/16 10:31:58;;;;;;;;;;;8.50;99.90;;;;;;4985068;28;19925;-65
2023/02/16 10:34:42;;;;;;;;;;;8.50;99.90;;;;;;4986823;28;20015;-66
2023/02/16 10:37:27;;;;;;;;;;;8.40;99.90;;;;;;4997609;28;19929;-65
2023/02/16 10:40:11;;;;;;;;;;;8.40;99.90;;;;;;4999695;28;19949;-66
2023/02/16 10:42:42;;;;;;;;;;;8.40;99.90;;;;;;4983785;28;20344;-66
2023/02/16 10:45:30;;;;;;;;;;;8.40;99.90;;;;;;4977281;28;19969;-66
2023/02/16 10:47:56;;;;;;;;;;;8.40;99.90;;;;;;4949399;28;19921;-66
2023/02/16 10:50:26;;;;;;;;;;;8.40;99.90;;;;;;4961224;28;19926;-66
2023/02/16 10:52:55;;;;;;;;;;;8.40;99.90;;;;;;4999323;28;19974;-66
2023/02/16 10:55:21;;;;;;;;;;;8.40;99.90;;;;;;4977336;28;20021;-66
2023/02/16 10:57:52;;;;;;;;;;;8.40;99.90;;;;;;4975183;28;20009;-66
2023/02/16 11:00:21;;;;;;;;;;;8.40;99.90;;;;;;4990713;28;20005;-65
2023/02/16 11:02:50;;;;;;;;;;;8.40;99.90;;;;;;4986303;28;19921;-66
2023/02/16 11:05:25;;;;;;;;;;;8.50;99.90;;;;;;4980189;28;19922;-66
2023/02/16 11:07:53;;;;;;;;;;;8.40;99.90;;;;;;4977794;28;20400;-66
2023/02/16 11:10:20;;;;;;;;;;;8.50;99.90;;;;;;4969780;28;19936;-66
2023/02/16 11:12:53;;;;;;;;;;;8.50;99.90;;;;;;5003473;28;19930;-65
2023/02/16 11:15:20;;;;;;;;;;;8.50;99.90;;;;;;4987700;28;19921;-66
2023/02/16 11:17:50;;;;;;;;;;;8.50;99.90;;;;;;4993230;28;20016;-65
2023/02/16 11:20:30;;;;;;;;;;;8.50;99.90;;;;;;4982083;28;19929;-65
2023/02/16 11:23:13;;;;;;;;;;;8.50;99.90;;;;;;4965688;28;19926;-66
2023/02/16 11:25:41;;;;;;;;;;;8.50;99.90;;;;;;4986820;28;19922;-65
2023/02/16 11:28:08;;;;;;;;;;;8.50;99.90;;;;;;4985890;28;19976;-66
2023/02/16 11:30:35;;;;;;;;;;;8.60;99.90;;;;;;4988672;28;19926;-66
2023/02/16 11:33:04;;;;;;;;;;;8.60;99.90;;;;;;4964888;28;19933;-66
2023/02/16 11:35:31;;;;;;;;;;;8.50;99.90;;;;;;4986396;28;19921;-66
2023/02/16 11:37:57;;;;;;;;;;;8.50;99.90;;;;;;4989677;28;19925;-66
2023/02/16 11:40:25;;;;;;;;;;;8.50;99.90;;;;;;4986459;28;20303;-66
2023/02/16 11:42:52;;;;;;;;;;;8.50;99.90;;;;;;4972986;28;19922;-66
2023/02/16 11:45:29;;;;;;;;;;;8.50;99.90;;;;;;4984375;28;20272;-66
2023/02/16 11:48:06;;;;;;;;;;;8.50;99.90;;;;;;4970785;28;20426;-66
2023/02/16 11:50:37;;;;;;;;;;;8.60;99.90;;;;;;4987844;28;20032;-66
2023/02/16 11:53:10;;;;;;;;;;;8.60;99.90;;;;;;4967945;28;19928;-66
2023/02/16 11:55:46;;;;;;;;;;;8.60;99.90;;;;;;4992380;28;20380;-66
2023/02/16 11:58:26;;;;;;;;;;;8.60;99.90;;;;;;4976641;28;19932;-66
2023/02/16 12:00:58;;;;;;;;;;;8.60;99.90;;;;;;4976387;28;19926;-66
2023/02/16 12:03:41;;;;;;;;;;;8.50;99.90;;;;;;4967203;28;19932;-66
2023/02/16 12:06:25;;;;;;;;;;;8.50;99.90;;;;;;4990566;28;19929;-66
2023/02/16 12:08:57;;;;;;;;;;;8.50;99.90;;;;;;4975923;28;19938;-66
2023/02/16 12:11:31;;;;;;;;;;;8.50;99.90;;;;;;4986947;28;19980;-66
2023/02/16 12:14:26;;;;;;;;;;;8.60;99.90;;;;;;4990690;28;19921;-65
2023/02/16 12:17:13;;;;;;;;;;;8.60;99.90;;;;;;4987590;28;20017;-66
2023/02/16 12:19:46;;;;;;;;;;;8.70;99.90;;;;;;4985947;28;19925;-65
2023/02/16 12:22:18;;;;;;;;;;;8.70;99.90;;;;;;5003708;28;19929;-66
2023/02/16 12:24:49;;;;;;;;;;;8.70;99.90;;;;;;5000196;28;19992;-65
2023/02/16 12:27:20;;;;;;;;;;;8.80;99.90;;;;;;5000916;28;20016;-66
2023/02/16 12:30:02;;;;;;;;;;;8.70;99.90;;;;;;4986277;28;19937;-66
2023/02/16 12:32:30;;;;;;;;;;;8.70;99.90;;;;;;4979963;28;19922;-66
2023/02/16 12:35:15;;;;;;;;;;;8.80;99.90;;;;;;4984409;28;19929;-66
2023/02/16 12:37:51;;;;;;;;;;;8.80;99.90;;;;;;4964207;28;19929;-65
2023/02/16 12:40:17;;;;;;;;;;;8.80;99.90;;;;;;4983220;28;19929;-65
2023/02/16 12:43:13;;;;;;;;;;;8.80;99.90;;;;;;4982531;28;19937;-65
2023/02/16 12:45:42;;;;;;;;;;;8.80;99.90;;;;;;4976461;28;20288;-65
2023/02/16 12:48:13;;;;;;;;;;;8.80;99.90;;;;;;4980892;28;19922;-65
2023/02/16 12:50:41;;;;;;;;;;;8.70;99.90;;;;;;4983913;28;19925;-65
2023/02/16 12:53:13;;;;;;;;;;;8.80;99.90;;;;;;4982697;28;20797;-65
2023/02/16 12:55:42;;;;;;;;;;;8.80;99.90;;;;;;4986186;28;20280;-65
2023/02/16 12:58:20;;;;;;;;;;;8.80;99.90;;;;;;4986547;28;20281;-65
2023/02/16 13:00:48;;;;;;;;;;;8.80;99.90;;;;;;4911328;28;20020;-65
2023/02/16 13:03:14;;;;;;;;;;;8.80;99.90;;;;;;4919453;28;19929;-65
2023/02/16 13:06:39;;;;;;;;;;;8.80;99.90;;;;;;4964997;28;19928;-64
2023/02/16 13:24:20;;;;;;;79.82;40.10;;;9.00;99.90;;;;;;4836036;27;1385041;-64
2023/02/16 13:26:48;;;;;;;76.10;40.55;;;9.40;99.90;;;;;;4875475;28;20065;-64
2023/02/16 13:29:21;;;;;;;75.35;39.67;;;9.50;99.90;;;;;;4992738;28;20042;-64
2023/02/16 13:31:59;;;;;;;70.90;39.75;;;9.50;99.90;;;;;;5017345;28;20057;-64
2023/02/16 13:34:47;;;;;;;73.55;37.53;;;9.60;99.90;;;;;;5020264;28;20041;-64
2023/02/16 13:37:50;;;;;;;67.20;37.17;;;9.70;99.90;;;;;;5017195;28;20056;-64
2023/02/16 13:40:38;;;;;;;68.95;37.53;;;9.70;99.90;;;;;;5022841;28;20056;-64
2023/02/16 13:43:38;;;;;;;70.30;35.75;;;9.80;99.90;;;;;;5018024;28;20518;-64
2023/02/16 13:46:15;;;;;;;68.00;35.97;;;9.80;99.90;;;;;;5019702;28;20077;-64
2023/02/16 13:48:49;;;;;;;69.40;37.08;;;9.80;99.90;;;;;;5022651;28;20058;-64
2023/02/16 13:51:26;;;;;;;62.78;35.60;;;9.80;99.90;;;;;;5019454;28;20049;-64
2023/02/16 13:53:58;;;;;;;68.97;37.20;;;9.80;99.90;;;;;;5020113;28;20679;-64
2023/02/16 13:56:29;;;;;;;60.70;34.33;;;9.90;99.90;;;;;;5021738;28;20569;-64
2023/02/16 13:58:57;;;;;;;65.20;33.97;;;9.90;99.90;;;;;;5021385;28;20085;-64
2023/02/16 14:01:43;;;;;;;52.65;28.83;;;9.90;99.90;;;;;;5019425;28;20042;-64
2023/02/16 14:04:21;;;;;;;59.30;31.52;;;9.80;99.90;;;;;;5019644;28;20045;-64
2023/02/16 14:07:02;;;;;;;57.58;32.45;;;9.80;99.90;;;;;;5021361;28;20049;-64
2023/02/16 14:09:34;;;;;;;51.25;28.77;;;9.90;99.90;;;;;;5021388;28;20503;-64
2023/02/16 14:12:22;;;;;;;55.00;30.90;;;9.90;99.90;;;;;;5019360;28;20042;-64
2023/02/16 14:14:50;;;;;;;59.55;32.50;;;9.90;99.90;;;;;;5012414;28;20099;-64
2023/02/16 14:17:21;;;;;;;52.55;31.88;;;9.80;99.90;;;;;;5020929;28;20408;-64
2023/02/16 14:19:53;;;;;;;52.80;31.33;;;9.80;99.90;;;;;;5023400;28;20041;-64
2023/02/16 14:22:46;;;;;;;52.67;32.28;;;9.80;99.90;;;;;;5011054;28;20050;-64
2023/02/16 14:25:31;;;;;;;51.80;31.95;;;9.80;99.90;;;;;;5000403;28;20057;-64
2023/02/16 14:28:25;;;;;;;56.88;32.20;;;9.80;99.90;;;;;;5015150;28;20042;-64
2023/02/16 14:31:09;;;;;;;52.78;29.73;;;9.80;99.90;;;;;;4954225;28;20094;-64
2023/02/16 14:33:53;;;;;;;54.53;33.42;;;9.90;99.90;;;;;;5008584;28;20085;-64
2023/02/16 14:36:25;;;;;;;59.03;31.65;;;9.90;99.90;;;;;;5010128;28;20049;-64
2023/02/16 14:38:53;;;;;;;57.95;29.95;;;9.80;99.90;;;;;;5008942;28;20050;-64
2023/02/16 14:41:22;;;;;;;49.85;30.75;;;9.80;99.90;;;;;;4992319;28;20560;-64
2023/02/16 14:44:09;;;;;;;49.40;30.83;;;9.80;99.90;;;;;;5006870;28;20058;-64
2023/02/16 14:47:01;;;;;;;51.03;29.48;;;9.80;99.90;;;;;;5006419;28;20046;-64
2023/02/16 14:49:36;;;;;;;48.30;29.48;;;9.80;99.90;;;;;;5007041;28;20392;-64
2023/02/16 14:52:17;;;;;;;48.08;30.58;;;9.70;99.90;;;;;;5004329;28;20053;-64
2023/02/16 14:55:14;;;;;;;49.83;29.02;;;9.70;99.90;;;;;;5004869;28;20045;-64
2023/02/16 14:57:52;;;;;;;47.67;30.17;;;9.70;99.90;;;;;;5010074;28;20120;-64
2023/02/16 15:00:38;;;;;;;45.42;28.08;;;9.70;99.90;;;;;;5006959;28;20446;-64
2023/02/16 15:03:21;;;;;;;47.42;29.27;;;9.60;99.90;;;;;;5004343;28;20674;-64
2023/02/16 15:05:57;;;;;;;48.42;28.08;;;9.60;99.90;;;;;;5008388;28;20418;-64
2023/02/16 15:08:33;;;;;;;51.28;28.25;;;9.60;99.90;;;;;;5009149;28;20113;-64
2023/02/16 15:11:04;;;;;;;47.40;28.70;;;9.60;99.90;;;;;;5009662;28;20431;-64
2023/02/16 15:13:33;;;;;;;52.42;29.98;;;9.50;99.90;;;;;;5004406;28;20050;-64
2023/02/16 15:16:01;;;;;;;49.40;29.88;;;9.50;99.90;;;;;;4992984;28;20502;-64
2023/02/16 15:18:42;;;;;;;48.88;29.77;;;9.50;99.90;;;;;;5007157;28;20054;-64
2023/02/16 15:21:22;;;;;;;47.88;29.33;;;9.50;99.90;;;;;;5007359;28;20063;-64
2023/02/16 15:23:52;;;;;;;;;;;9.40;99.90;;;;;;5006977;28;20151;-64
2023/02/16 15:26:32;;;;;;;48.20;29.25;;;9.40;99.90;;;;;;4992337;28;19971;-64
2023/02/16 15:29:00;;;;;;;48.78;30.10;;;9.40;99.90;;;;;;5009369;28;20064;-64